NCAR-RAP Real-Time Weather Data

Output produced by METARs form (08 May 2021  00:57 UTC)
found at http://weather.rap.ucar.edu/surface/
 
KMSL 080053Z AUTO 00000KT 10SM CLR 17/05 A3008 RMK AO2 SLP183 T01670050 TSNO
KMSL 072353Z AUTO 29004KT 10SM CLR 20/03 A3008 RMK AO2 SLP183 T02000028 10228 20183 56020 TSNO
KMSL 072253Z AUTO 31007KT 10SM CLR 22/02 A3010 RMK AO2 SLP189 T02170022
KMSL 072053Z AUTO VRB04KT 10SM CLR 22/02 A3012 RMK AO2 SLP196 T02170017 58019
KMSL 071953Z AUTO VRB04KT 10SM CLR 21/01 A3014 RMK AO2 SLP203 T02110011
KMSL 071853Z AUTO VRB03KT 10SM CLR 21/01 A3016 RMK AO2 SLP209 T02060011
KMSL 071753Z AUTO 31004KT 10SM CLR 21/01 A3018 RMK AO2 SLP216 T02060011 10206 20106 58008
KMSL 071653Z AUTO VRB03KT 10SM SCT060 18/03 A3020 RMK AO2 SLP224 T01830033
KMSL 071553Z AUTO 34007KT 320V020 10SM CLR 19/04 A3021 RMK AO2 SLP227 T01890044
KMSL 071453Z AUTO 31007KT CLR 17/07 A3020 RMK AO2 SLP225 T01670067 50015 $
KMSL 071444Z AUTO VRB04KT FEW001 16/07 A3021 RMK AO2 T01610072 $
KMSL 071353Z AUTO 30004KT 10SM CLR 14/07 A3021 RMK AO2 SLP227 T01440072
KMSL 071253Z AUTO 30004KT 10SM CLR 13/08 A3019 RMK AO2 SLP220 T01280078
KMSL 071153Z AUTO 00000KT 10SM CLR 11/08 A3016 RMK AO2 SLP211 7//// T01060078 10122 20100 53014 $
KMSL 071053Z AUTO 00000KT 10SM CLR 10/07 A3013 RMK AO2 SLP202 T01000072 $